sensor_id;sensor_type;location;lat;lon;timestamp;pressure;altitude;pressure_sealevel;temperature;humidity
39435;BME280;66825;51.880;-0.518;2023-04-22T00:02:04;99845.66;;;17.61;37.19
39435;BME280;66825;51.880;-0.518;2023-04-22T00:04:30;99839.41;;;17.60;37.29
39435;BME280;66825;51.880;-0.518;2023-04-22T00:06:56;99837.47;;;17.61;37.05
39435;BME280;66825;51.880;-0.518;2023-04-22T00:09:22;99838.59;;;17.60;37.08
39435;BME280;66825;51.880;-0.518;2023-04-22T00:11:48;99831.53;;;17.59;37.15
39435;BME280;66825;51.880;-0.518;2023-04-22T00:14:13;99829.94;;;17.58;37.09
39435;BME280;66825;51.880;-0.518;2023-04-22T00:16:39;99827.22;;;17.58;37.01
39435;BME280;66825;51.880;-0.518;2023-04-22T00:19:04;99808.28;;;17.53;37.18
39435;BME280;66825;51.880;-0.518;2023-04-22T00:21:30;99810.38;;;17.56;36.99
39435;BME280;66825;51.880;-0.518;2023-04-22T00:23:56;99821.28;;;17.56;37.25
39435;BME280;66825;51.880;-0.518;2023-04-22T00:26:22;99813.44;;;17.54;37.17
39435;BME280;66825;51.880;-0.518;2023-04-22T00:28:47;99812.63;;;17.54;37.36
39435;BME280;66825;51.880;-0.518;2023-04-22T00:31:13;99814.53;;;17.53;36.93
39435;BME280;66825;51.880;-0.518;2023-04-22T00:33:38;99799.31;;;17.52;37.19
39435;BME280;66825;51.880;-0.518;2023-04-22T00:36:04;99801.22;;;17.52;37.13
39435;BME280;66825;51.880;-0.518;2023-04-22T00:38:30;99804.28;;;17.50;37.39
39435;BME280;66825;51.880;-0.518;2023-04-22T00:40:56;99798.03;;;17.50;37.06
39435;BME280;66825;51.880;-0.518;2023-04-22T00:43:22;99791.75;;;17.49;37.13
39435;BME280;66825;51.880;-0.518;2023-04-22T00:45:48;99775.22;;;17.37;37.11
39435;BME280;66825;51.880;-0.518;2023-04-22T00:48:13;99793.69;;;17.49;37.05
39435;BME280;66825;51.880;-0.518;2023-04-22T00:50:39;99788.56;;;17.47;37.22
39435;BME280;66825;51.880;-0.518;2023-04-22T00:53:04;99785.03;;;17.46;37.14
39435;BME280;66825;51.880;-0.518;2023-04-22T00:55:30;99776.06;;;17.46;37.43
39435;BME280;66825;51.880;-0.518;2023-04-22T00:57:57;99773.66;;;17.44;37.09
39435;BME280;66825;51.880;-0.518;2023-04-22T01:00:23;99776.38;;;17.44;37.24
39435;BME280;66825;51.880;-0.518;2023-04-22T01:02:52;99778.63;;;17.42;37.50
39435;BME280;66825;51.880;-0.518;2023-04-22T01:05:18;99772.06;;;17.43;36.94
39435;BME280;66825;51.880;-0.518;2023-04-22T01:07:44;99767.72;;;17.42;37.49
39435;BME280;66825;51.880;-0.518;2023-04-22T01:10:10;99770.28;;;17.39;37.26
39435;BME280;66825;51.880;-0.518;2023-04-22T01:12:36;99770.75;;;17.41;37.37
39435;BME280;66825;51.880;-0.518;2023-04-22T01:15:02;99771.06;;;17.39;37.26
39435;BME280;66825;51.880;-0.518;2023-04-22T01:17:28;99766.44;;;17.40;37.25
39435;BME280;66825;51.880;-0.518;2023-04-22T01:19:57;99762.91;;;17.39;37.31
39435;BME280;66825;51.880;-0.518;2023-04-22T01:22:24;99701.44;;;16.98;37.15
39435;BME280;66825;51.880;-0.518;2023-04-22T01:24:50;99758.41;;;17.35;37.42
39435;BME280;66825;51.880;-0.518;2023-04-22T01:27:16;99753.44;;;17.37;37.02
39435;BME280;66825;51.880;-0.518;2023-04-22T01:29:41;99760.84;;;17.36;36.99
39435;BME280;66825;51.880;-0.518;2023-04-22T01:32:07;99751.84;;;17.36;37.06
39435;BME280;66825;51.880;-0.518;2023-04-22T01:34:32;99754.56;;;17.36;37.20
39435;BME280;66825;51.880;-0.518;2023-04-22T01:36:58;99742.88;;;17.35;37.24
39435;BME280;66825;51.880;-0.518;2023-04-22T01:39:23;99748.31;;;17.35;37.19
39435;BME280;66825;51.880;-0.518;2023-04-22T01:41:49;99734.22;;;17.33;37.22
39435;BME280;66825;51.880;-0.518;2023-04-22T01:44:15;99732.63;;;17.32;37.21
39435;BME280;66825;51.880;-0.518;2023-04-22T01:46:40;99738.06;;;17.32;37.02
39435;BME280;66825;51.880;-0.518;2023-04-22T01:49:06;99724.59;;;17.27;37.15
39435;BME280;66825;51.880;-0.518;2023-04-22T01:51:31;99727.16;;;17.32;37.57
39435;BME280;66825;51.880;-0.518;2023-04-22T01:53:57;99708.53;;;17.17;36.91
39435;BME280;66825;51.880;-0.518;2023-04-22T01:56:22;99711.94;;;17.22;37.04
39435;BME280;66825;51.880;-0.518;2023-04-22T01:58:48;99720.75;;;17.28;37.12
39435;BME280;66825;51.880;-0.518;2023-04-22T02:01:14;99712.09;;;17.17;37.31
39435;BME280;66825;51.880;-0.518;2023-04-22T02:03:40;99721.88;;;17.27;37.08
39435;BME280;66825;51.880;-0.518;2023-04-22T02:06:06;99724.59;;;17.27;37.27
39435;BME280;66825;51.880;-0.518;2023-04-22T02:08:32;99710.16;;;17.18;37.20
39435;BME280;66825;51.880;-0.518;2023-04-22T02:10:57;99663.72;;;16.82;37.08
39435;BME280;66825;51.880;-0.518;2023-04-22T02:13:25;99723.00;;;17.26;37.33
39435;BME280;66825;51.880;-0.518;2023-04-22T02:15:51;99709.66;;;17.15;37.17
39435;BME280;66825;51.880;-0.518;2023-04-22T02:18:17;99727.66;;;17.25;37.31
39435;BME280;66825;51.880;-0.518;2023-04-22T02:20:44;99723.59;;;17.23;37.37
39435;BME280;66825;51.880;-0.518;2023-04-22T02:23:09;99697.81;;;17.11;37.48
39435;BME280;66825;51.880;-0.518;2023-04-22T02:25:36;99720.88;;;17.23;37.17
39435;BME280;66825;51.880;-0.518;2023-04-22T02:28:02;99699.69;;;17.11;37.01
39435;BME280;66825;51.880;-0.518;2023-04-22T02:30:27;99695.69;;;17.08;37.18
39435;BME280;66825;51.880;-0.518;2023-04-22T02:32:53;99652.69;;;16.79;37.42
39435;BME280;66825;51.880;-0.518;2023-04-22T02:35:18;99632.44;;;16.62;37.43
39435;BME280;66825;51.880;-0.518;2023-04-22T02:37:44;99717.69;;;17.21;37.50
39435;BME280;66825;51.880;-0.518;2023-04-22T02:40:10;99714.97;;;17.21;37.19
39435;BME280;66825;51.880;-0.518;2023-04-22T02:42:35;99708.38;;;17.13;37.48
39435;BME280;66825;51.880;-0.518;2023-04-22T02:45:01;99690.72;;;17.02;37.20
39435;BME280;66825;51.880;-0.518;2023-04-22T02:47:26;99721.53;;;17.20;37.54
39435;BME280;66825;51.880;-0.518;2023-04-22T02:49:52;99719.13;;;17.18;37.16
39435;BME280;66825;51.880;-0.518;2023-04-22T02:52:17;99704.34;;;17.10;37.50
39435;BME280;66825;51.880;-0.518;2023-04-22T02:54:43;99710.16;;;17.18;37.34
39435;BME280;66825;51.880;-0.518;2023-04-22T02:57:08;99708.53;;;17.17;37.53
39435;BME280;66825;51.880;-0.518;2023-04-22T02:59:34;99706.94;;;17.15;37.00
39435;BME280;66825;51.880;-0.518;2023-04-22T03:02:01;99702.31;;;17.16;37.53
39435;BME280;66825;51.880;-0.518;2023-04-22T03:04:27;99708.88;;;17.15;37.32
39435;BME280;66825;51.880;-0.518;2023-04-22T03:06:52;99708.03;;;17.14;37.47
39435;BME280;66825;51.880;-0.518;2023-04-22T03:09:17;99699.88;;;17.14;37.30
39435;BME280;66825;51.880;-0.518;2023-04-22T03:11:43;99697.47;;;17.13;37.34
39435;BME280;66825;51.880;-0.518;2023-04-22T03:14:08;99692.84;;;17.13;37.37
39435;BME280;66825;51.880;-0.518;2023-04-22T03:16:34;99692.84;;;17.13;37.18
39435;BME280;66825;51.880;-0.518;2023-04-22T03:19:00;99680.47;;;17.07;37.26
39435;BME280;66825;51.880;-0.518;2023-04-22T03:21:26;99679.88;;;17.10;37.64
39435;BME280;66825;51.880;-0.518;2023-04-22T03:23:52;99676.19;;;17.06;37.53
39435;BME280;66825;51.880;-0.518;2023-04-22T03:26:18;99656.13;;;16.93;37.54
39435;BME280;66825;51.880;-0.518;2023-04-22T03:28:44;99655.00;;;16.94;37.23
39435;BME280;66825;51.880;-0.518;2023-04-22T03:31:10;99625.31;;;16.75;37.40
39435;BME280;66825;51.880;-0.518;2023-04-22T03:33:35;99680.97;;;17.09;37.42
39435;BME280;66825;51.880;-0.518;2023-04-22T03:36:00;99674.75;;;17.09;37.50
39435;BME280;66825;51.880;-0.518;2023-04-22T03:38:26;99684.81;;;17.08;37.64
39435;BME280;66825;51.880;-0.518;2023-04-22T03:40:51;99671.22;;;17.08;37.35
39435;BME280;66825;51.880;-0.518;2023-04-22T03:43:17;99663.50;;;17.02;37.58
39435;BME280;66825;51.880;-0.518;2023-04-22T03:45:43;99649.06;;;16.92;37.20
39435;BME280;66825;51.880;-0.518;2023-04-22T03:48:08;99668.81;;;17.07;37.16
39435;BME280;66825;51.880;-0.518;2023-04-22T03:50:34;99684.34;;;17.06;37.53
39435;BME280;66825;51.880;-0.518;2023-04-22T03:52:59;99666.53;;;17.00;37.36
39435;BME280;66825;51.880;-0.518;2023-04-22T03:55:25;99664.47;;;17.06;37.13
39435;BME280;66825;51.880;-0.518;2023-04-22T03:57:50;99667.53;;;17.04;37.39
39435;BME280;66825;51.880;-0.518;2023-04-22T04:00:16;99652.81;;;17.05;37.55
39435;BME280;66825;51.880;-0.518;2023-04-22T04:02:42;99643.03;;;17.04;37.25
39435;BME280;66825;51.880;-0.518;2023-04-22T04:05:08;99636.78;;;17.04;37.54
39435;BME280;66825;51.880;-0.518;2023-04-22T04:07:35;99607.41;;;16.83;37.32
39435;BME280;66825;51.880;-0.518;2023-04-22T04:10:01;99627.81;;;17.03;37.45
39435;BME280;66825;51.880;-0.518;2023-04-22T04:12:26;99638.69;;;17.03;37.32
39435;BME280;66825;51.880;-0.518;2023-04-22T04:14:51;99631.66;;;17.02;37.38
39435;BME280;66825;51.880;-0.518;2023-04-22T04:17:17;99645.25;;;17.02;37.45
39435;BME280;66825;51.880;-0.518;2023-04-22T04:19:42;99634.53;;;16.97;37.26
39435;BME280;66825;51.880;-0.518;2023-04-22T04:22:08;99642.84;;;17.01;37.39
39435;BME280;66825;51.880;-0.518;2023-04-22T04:24:34;99575.47;;;16.57;37.55
39435;BME280;66825;51.880;-0.518;2023-04-22T04:27:01;99639.31;;;17.00;37.52
39435;BME280;66825;51.880;-0.518;2023-04-22T04:29:27;99637.75;;;16.99;37.22
39435;BME280;66825;51.880;-0.518;2023-04-22T04:31:53;99635.97;;;16.94;37.47
39435;BME280;66825;51.880;-0.518;2023-04-22T04:34:18;99640.75;;;16.97;37.42
39435;BME280;66825;51.880;-0.518;2023-04-22T04:36:44;99639.97;;;16.97;37.56
39435;BME280;66825;51.880;-0.518;2023-04-22T04:39:10;99639.16;;;16.96;37.40
39435;BME280;66825;51.880;-0.518;2023-04-22T04:41:36;99635.63;;;16.96;37.49
39435;BME280;66825;51.880;-0.518;2023-04-22T04:44:03;99634.84;;;16.95;37.18
39435;BME280;66825;51.880;-0.518;2023-04-22T04:46:28;99610.59;;;16.85;37.43
39435;BME280;66825;51.880;-0.518;2023-04-22T04:48:54;99622.34;;;16.94;37.50
39435;BME280;66825;51.880;-0.518;2023-04-22T04:51:20;99623.16;;;16.95;37.42
39435;BME280;66825;51.880;-0.518;2023-04-22T04:53:46;99606.09;;;16.80;37.42
39435;BME280;66825;51.880;-0.518;2023-04-22T04:56:11;99635.16;;;16.94;37.32
39435;BME280;66825;51.880;-0.518;2023-04-22T04:58:37;99637.88;;;16.94;37.61
39435;BME280;66825;51.880;-0.518;2023-04-22T05:01:02;99615.88;;;16.81;37.45
39435;BME280;66825;51.880;-0.518;2023-04-22T05:03:28;99616.53;;;16.87;37.29
39435;BME280;66825;51.880;-0.518;2023-04-22T05:05:53;99622.44;;;16.89;37.29
39435;BME280;66825;51.880;-0.518;2023-04-22T05:08:19;99621.03;;;16.92;37.27
39435;BME280;66825;51.880;-0.518;2023-04-22T05:10:44;99622.94;;;16.91;37.53
39435;BME280;66825;51.880;-0.518;2023-04-22T05:13:10;99617.97;;;16.85;37.08
39435;BME280;66825;51.880;-0.518;2023-04-22T05:15:36;99626.78;;;16.90;37.79
39435;BME280;66825;51.880;-0.518;2023-04-22T05:18:01;99623.09;;;16.86;37.29
39435;BME280;66825;51.880;-0.518;2023-04-22T05:20:27;99623.28;;;16.90;37.51
39435;BME280;66825;51.880;-0.518;2023-04-22T05:22:52;99609.81;;;16.85;37.16
39435;BME280;66825;51.880;-0.518;2023-04-22T05:25:18;99609.00;;;16.84;37.67
39435;BME280;66825;51.880;-0.518;2023-04-22T05:27:43;99620.06;;;16.88;37.24
39435;BME280;66825;51.880;-0.518;2023-04-22T05:30:09;99612.22;;;16.86;37.42
39435;BME280;66825;51.880;-0.518;2023-04-22T05:32:34;99617.34;;;16.88;37.34
39435;BME280;66825;51.880;-0.518;2023-04-22T05:35:00;99619.56;;;16.86;37.21
39435;BME280;66825;51.880;-0.518;2023-04-22T05:37:25;99625.81;;;16.86;37.20
39435;BME280;66825;51.880;-0.518;2023-04-22T05:39:51;99626.59;;;16.87;37.53
39435;BME280;66825;51.880;-0.518;2023-04-22T05:42:16;99625.81;;;16.86;37.48
39435;BME280;66825;51.880;-0.518;2023-04-22T05:44:43;99623.09;;;16.86;37.47
39435;BME280;66825;51.880;-0.518;2023-04-22T05:47:08;99627.72;;;16.86;37.31
39435;BME280;66825;51.880;-0.518;2023-04-22T05:49:34;99631.59;;;16.85;37.33
39435;BME280;66825;51.880;-0.518;2023-04-22T05:51:59;99621.94;;;16.78;37.38
39435;BME280;66825;51.880;-0.518;2023-04-22T05:54:25;99633.50;;;16.84;37.26
39435;BME280;66825;51.880;-0.518;2023-04-22T05:56:51;99628.03;;;16.84;37.52
39435;BME280;66825;51.880;-0.518;2023-04-22T05:59:16;99621.81;;;16.83;37.38
39435;BME280;66825;51.880;-0.518;2023-04-22T06:01:42;99620.22;;;16.82;37.32
39435;BME280;66825;51.880;-0.518;2023-04-22T06:04:08;99628.38;;;16.82;37.29
39435;BME280;66825;51.880;-0.518;2023-04-22T06:06:34;99619.38;;;16.82;37.43
39435;BME280;66825;51.880;-0.518;2023-04-22T06:09:00;99622.09;;;16.82;37.50
39435;BME280;66825;51.880;-0.518;2023-04-22T06:11:26;99623.25;;;16.81;37.28
39435;BME280;66825;51.880;-0.518;2023-04-22T06:13:52;99620.53;;;16.81;37.61
39435;BME280;66825;51.880;-0.518;2023-04-22T06:16:18;99612.19;;;16.77;37.56
39435;BME280;66825;51.880;-0.518;2023-04-22T06:18:43;99617.63;;;16.77;37.69
39435;BME280;66825;51.880;-0.518;2023-04-22T06:21:09;99612.66;;;16.79;37.79
39435;BME280;66825;51.880;-0.518;2023-04-22T06:23:35;99603.19;;;16.68;37.30
39435;BME280;66825;51.880;-0.518;2023-04-22T06:26:00;99609.13;;;16.70;37.42
39435;BME280;66825;51.880;-0.518;2023-04-22T06:28:26;99602.69;;;16.66;37.68
39435;BME280;66825;51.880;-0.518;2023-04-22T06:30:52;99623.06;;;16.77;37.27
39435;BME280;66825;51.880;-0.518;2023-04-22T06:33:17;99608.31;;;16.70;37.52
39435;BME280;66825;51.880;-0.518;2023-04-22T06:35:43;99632.81;;;16.78;37.42
39435;BME280;66825;51.880;-0.518;2023-04-22T06:38:08;99627.69;;;16.77;37.42
39435;BME280;66825;51.880;-0.518;2023-04-22T06:40:34;99623.88;;;16.78;37.71
39435;BME280;66825;51.880;-0.518;2023-04-22T06:42:59;99630.41;;;16.77;37.67
39435;BME280;66825;51.880;-0.518;2023-04-22T06:45:25;99635.06;;;16.76;37.59
39435;BME280;66825;51.880;-0.518;2023-04-22T06:47:53;99623.38;;;16.76;37.27
39435;BME280;66825;51.880;-0.518;2023-04-22T06:50:19;99587.66;;;16.60;37.14
39435;BME280;66825;51.880;-0.518;2023-04-22T06:52:44;99616.03;;;16.76;37.50
39435;BME280;66825;51.880;-0.518;2023-04-22T06:55:10;99612.81;;;16.74;37.43
39435;BME280;66825;51.880;-0.518;2023-04-22T06:57:35;99619.03;;;16.75;37.55
39435;BME280;66825;51.880;-0.518;2023-04-22T07:00:03;99606.53;;;16.65;37.58
39435;BME280;66825;51.880;-0.518;2023-04-22T07:02:28;99620.97;;;16.74;37.70
39435;BME280;66825;51.880;-0.518;2023-04-22T07:04:54;99625.63;;;16.74;37.29
39435;BME280;66825;51.880;-0.518;2023-04-22T07:07:19;99622.09;;;16.73;37.68
39435;BME280;66825;51.880;-0.518;2023-04-22T07:09:45;99618.56;;;16.73;37.57
39435;BME280;66825;51.880;-0.518;2023-04-22T07:12:10;99628.63;;;16.72;37.65
39435;BME280;66825;51.880;-0.518;2023-04-22T07:14:36;99634.91;;;16.73;37.31
39435;BME280;66825;51.880;-0.518;2023-04-22T07:17:01;99627.03;;;16.71;37.74
39435;BME280;66825;51.880;-0.518;2023-04-22T07:19:27;99628.97;;;16.71;37.37
39435;BME280;66825;51.880;-0.518;2023-04-22T07:21:52;99641.44;;;16.72;37.40
39435;BME280;66825;51.880;-0.518;2023-04-22T07:24:18;99619.94;;;16.61;37.33
39435;BME280;66825;51.880;-0.518;2023-04-22T07:26:44;99638.22;;;16.70;37.33
39435;BME280;66825;51.880;-0.518;2023-04-22T07:29:09;99637.13;;;16.71;37.26
39435;BME280;66825;51.880;-0.518;2023-04-22T07:31:37;99636.31;;;16.70;37.43
39435;BME280;66825;51.880;-0.518;2023-04-22T07:34:02;99633.25;;;16.63;37.57
39435;BME280;66825;51.880;-0.518;2023-04-22T07:36:28;99628.13;;;16.61;37.51
39435;BME280;66825;51.880;-0.518;2023-04-22T07:38:54;99654.56;;;16.70;37.63
39435;BME280;66825;51.880;-0.518;2023-04-22T07:41:19;99636.63;;;16.68;37.72
39435;BME280;66825;51.880;-0.518;2023-04-22T07:43:44;99622.22;;;16.59;37.52
39435;BME280;66825;51.880;-0.518;2023-04-22T07:46:10;99635.50;;;16.70;37.59
39435;BME280;66825;51.880;-0.518;2023-04-22T07:48:35;99623.84;;;16.69;37.72
39435;BME280;66825;51.880;-0.518;2023-04-22T07:51:01;99635.50;;;16.70;37.63
39435;BME280;66825;51.880;-0.518;2023-04-22T07:53:27;99621.91;;;16.70;37.79
39435;BME280;66825;51.880;-0.518;2023-04-22T07:55:52;99622.84;;;16.65;37.71
39435;BME280;66825;51.880;-0.518;2023-04-22T07:58:18;99550.56;;;16.24;37.38
39435;BME280;66825;51.880;-0.518;2023-04-22T08:00:43;99610.84;;;16.57;37.35
39435;BME280;66825;51.880;-0.518;2023-04-22T08:03:09;99632.47;;;16.71;37.70
39435;BME280;66825;51.880;-0.518;2023-04-22T08:05:34;99636.31;;;16.70;37.33
39435;BME280;66825;51.880;-0.518;2023-04-22T08:08:00;99637.13;;;16.71;37.53
39435;BME280;66825;51.880;-0.518;2023-04-22T08:10:25;99641.59;;;16.66;37.52
39435;BME280;66825;51.880;-0.518;2023-04-22T08:12:51;99628.97;;;16.71;37.56
39435;BME280;66825;51.880;-0.518;2023-04-22T08:15:16;99625.13;;;16.72;37.79
39435;BME280;66825;51.880;-0.518;2023-04-22T08:17:42;99624.31;;;16.71;37.58
39435;BME280;66825;51.880;-0.518;2023-04-22T08:20:08;99622.09;;;16.73;37.78
39435;BME280;66825;51.880;-0.518;2023-04-22T08:22:33;99597.09;;;16.62;37.33
39435;BME280;66825;51.880;-0.518;2023-04-22T08:25:00;99616.66;;;16.73;37.49
39435;BME280;66825;51.880;-0.518;2023-04-22T08:27:25;99620.19;;;16.74;37.17
39435;BME280;66825;51.880;-0.518;2023-04-22T08:29:51;99623.69;;;16.74;37.65
39435;BME280;66825;51.880;-0.518;2023-04-22T08:32:16;99611.84;;;16.70;37.78
39435;BME280;66825;51.880;-0.518;2023-04-22T08:34:46;99616.31;;;16.75;37.28
39435;BME280;66825;51.880;-0.518;2023-04-22T08:37:13;99602.09;;;16.69;37.26
39435;BME280;66825;51.880;-0.518;2023-04-22T08:39:38;99610.88;;;16.75;37.40
39435;BME280;66825;51.880;-0.518;2023-04-22T08:42:04;99619.88;;;16.75;37.63
39435;BME280;66825;51.880;-0.518;2023-04-22T08:44:29;99607.19;;;16.71;37.44
39435;BME280;66825;51.880;-0.518;2023-04-22T08:46:55;99614.41;;;16.75;37.59
39435;BME280;66825;51.880;-0.518;2023-04-22T08:49:22;99618.75;;;16.76;37.48
39435;BME280;66825;51.880;-0.518;2023-04-22T08:51:48;99610.59;;;16.76;37.29
39435;BME280;66825;51.880;-0.518;2023-04-22T08:54:14;99607.06;;;16.76;37.70
39435;BME280;66825;51.880;-0.518;2023-04-22T08:56:42;99607.88;;;16.76;37.58
39435;BME280;66825;51.880;-0.518;2023-04-22T08:59:11;99605.16;;;16.76;37.66
39435;BME280;66825;51.880;-0.518;2023-04-22T09:01:39;99598.59;;;16.77;37.85
39435;BME280;66825;51.880;-0.518;2023-04-22T09:04:05;99595.88;;;16.77;37.51
39435;BME280;66825;51.880;-0.518;2023-04-22T09:06:31;99599.38;;;16.78;37.53
39435;BME280;66825;51.880;-0.518;2023-04-22T09:08:58;99592.16;;;16.73;37.41
39435;BME280;66825;51.880;-0.518;2023-04-22T09:11:28;99583.34;;;16.67;37.67
39435;BME280;66825;51.880;-0.518;2023-04-22T09:13:54;99595.56;;;16.79;37.33
39435;BME280;66825;51.880;-0.518;2023-04-22T09:16:19;99568.63;;;16.68;37.39
39435;BME280;66825;51.880;-0.518;2023-04-22T09:18:45;99586.09;;;16.76;37.36
39435;BME280;66825;51.880;-0.518;2023-04-22T09:21:10;99575.69;;;16.70;37.41
39435;BME280;66825;51.880;-0.518;2023-04-22T09:24:02;99582.44;;;16.81;37.32
39435;BME280;66825;51.880;-0.518;2023-04-22T09:26:29;99580.50;;;16.81;37.35
39435;BME280;66825;51.880;-0.518;2023-04-22T09:28:57;99582.44;;;16.81;37.52
39435;BME280;66825;51.880;-0.518;2023-04-22T09:31:23;99579.41;;;16.82;37.33
39435;BME280;66825;51.880;-0.518;2023-04-22T09:33:52;99581.31;;;16.82;37.36
39435;BME280;66825;51.880;-0.518;2023-04-22T09:36:27;99584.84;;;16.82;37.52
39435;BME280;66825;51.880;-0.518;2023-04-22T09:38:57;99576.69;;;16.82;37.43
39435;BME280;66825;51.880;-0.518;2023-04-22T09:41:31;99581.00;;;16.83;37.56
39435;BME280;66825;51.880;-0.518;2023-04-22T09:43:58;99575.56;;;16.83;37.40
39435;BME280;66825;51.880;-0.518;2023-04-22T09:46:25;99556.63;;;16.70;37.58
39435;BME280;66825;51.880;-0.518;2023-04-22T09:48:52;99582.63;;;16.85;37.77
39435;BME280;66825;51.880;-0.518;2023-04-22T09:51:20;99582.63;;;16.85;37.61
39435;BME280;66825;51.880;-0.518;2023-04-22T09:54:06;99578.28;;;16.83;37.43
39435;BME280;66825;51.880;-0.518;2023-04-22T09:56:49;99577.97;;;16.85;37.73
39435;BME280;66825;51.880;-0.518;2023-04-22T09:59:35;99578.75;;;16.86;37.32
39435;BME280;66825;51.880;-0.518;2023-04-22T10:02:01;99560.81;;;16.76;37.57
39435;BME280;66825;51.880;-0.518;2023-04-22T10:04:30;99575.75;;;16.87;37.44
39435;BME280;66825;51.880;-0.518;2023-04-22T10:06:56;99574.91;;;16.87;37.47
39435;BME280;66825;51.880;-0.518;2023-04-22T10:09:23;99575.75;;;16.87;37.64
39435;BME280;66825;51.880;-0.518;2023-04-22T10:11:50;99578.47;;;16.87;37.44
39435;BME280;66825;51.880;-0.518;2023-04-22T10:14:16;99503.78;;;16.44;37.37
39435;BME280;66825;51.880;-0.518;2023-04-22T10:16:45;99572.69;;;16.89;37.74
39435;BME280;66825;51.880;-0.518;2023-04-22T10:19:14;99548.03;;;16.76;37.55
39435;BME280;66825;51.880;-0.518;2023-04-22T10:21:43;99556.81;;;16.82;37.48
39435;BME280;66825;51.880;-0.518;2023-04-22T10:24:14;99568.03;;;16.89;37.75
39435;BME280;66825;51.880;-0.518;2023-04-22T10:26:55;99560.69;;;16.90;37.26
39435;BME280;66825;51.880;-0.518;2023-04-22T10:29:24;99569.66;;;16.90;37.46
39435;BME280;66825;51.880;-0.518;2023-04-22T10:31:53;99569.66;;;16.90;37.49
39435;BME280;66825;51.880;-0.518;2023-04-22T10:34:18;99570.47;;;16.91;37.48
39435;BME280;66825;51.880;-0.518;2023-04-22T10:37:10;99559.88;;;16.89;37.65
39435;BME280;66825;51.880;-0.518;2023-04-22T10:39:37;99561.19;;;16.92;37.36
39435;BME280;66825;51.880;-0.518;2023-04-22T10:42:07;99564.72;;;16.92;37.21
39435;BME280;66825;51.880;-0.518;2023-04-22T10:44:54;99489.56;;;16.47;37.50
39435;BME280;66825;51.880;-0.518;2023-04-22T10:50:10;99567.44;;;16.92;37.34
39435;BME280;66825;51.880;-0.518;2023-04-22T10:52:35;99545.31;;;16.85;37.29
39435;BME280;66825;51.880;-0.518;2023-04-22T10:55:01;99574.50;;;16.93;37.39
39435;BME280;66825;51.880;-0.518;2023-04-22T10:57:30;99568.22;;;16.93;37.43
39435;BME280;66825;51.880;-0.518;2023-04-22T11:00:16;99567.13;;;16.94;37.32
39435;BME280;66825;51.880;-0.518;2023-04-22T11:02:45;99564.41;;;16.94;37.38
39435;BME280;66825;51.880;-0.518;2023-04-22T11:05:24;99493.84;;;16.48;37.29
39435;BME280;66825;51.880;-0.518;2023-04-22T11:07:59;99563.63;;;16.93;37.42
39435;BME280;66825;51.880;-0.518;2023-04-22T11:10:34;99566.34;;;16.93;37.78
39435;BME280;66825;51.880;-0.518;2023-04-22T11:13:01;99563.09;;;16.91;37.30
39435;BME280;66825;51.880;-0.518;2023-04-22T11:15:29;99562.50;;;16.94;37.60
39435;BME280;66825;51.880;-0.518;2023-04-22T11:17:55;99558.97;;;16.94;37.52
39435;BME280;66825;51.880;-0.518;2023-04-22T11:20:21;99557.84;;;16.95;37.62
39435;BME280;66825;51.880;-0.518;2023-04-22T11:22:55;99557.84;;;16.95;37.44
39435;BME280;66825;51.880;-0.518;2023-04-22T11:25:22;99569.22;;;16.97;37.52
39435;BME280;66825;51.880;-0.518;2023-04-22T11:27:48;99558.84;;;16.99;37.67
39435;BME280;66825;51.880;-0.518;2023-04-22T11:30:16;99550.50;;;16.95;37.92
39435;BME280;66825;51.880;-0.518;2023-04-22T11:32:44;99562.84;;;17.02;37.68
39435;BME280;66825;51.880;-0.518;2023-04-22T11:35:13;99562.50;;;17.03;37.96
39435;BME280;66825;51.880;-0.518;2023-04-22T11:37:40;99557.06;;;17.03;38.42
39435;BME280;66825;51.880;-0.518;2023-04-22T11:40:11;99529.50;;;16.87;38.33
39435;BME280;66825;51.880;-0.518;2023-04-22T11:42:36;99557.41;;;17.10;38.07
39435;BME280;66825;51.880;-0.518;2023-04-22T11:45:03;99553.56;;;17.11;38.33
39435;BME280;66825;51.880;-0.518;2023-04-22T11:47:30;99558.19;;;17.11;38.17
39435;BME280;66825;51.880;-0.518;2023-04-22T11:50:04;99551.78;;;17.15;38.36
39435;BME280;66825;51.880;-0.518;2023-04-22T11:55:24;99554.38;;;17.21;38.35
39435;BME280;66825;51.880;-0.518;2023-04-22T12:00:45;99558.03;;;17.25;38.37
39435;BME280;66825;51.880;-0.518;2023-04-22T12:03:14;99555.00;;;17.26;37.96
39435;BME280;66825;51.880;-0.518;2023-04-22T12:05:46;99547.81;;;17.22;38.19
39435;BME280;66825;51.880;-0.518;2023-04-22T12:08:16;99562.22;;;17.31;37.96
39435;BME280;66825;51.880;-0.518;2023-04-22T12:10:53;99550.06;;;17.20;37.97
39435;BME280;66825;51.880;-0.518;2023-04-22T12:13:31;99565.44;;;17.33;38.23
39435;BME280;66825;51.880;-0.518;2023-04-22T12:16:02;99566.22;;;17.34;37.86
39435;BME280;66825;51.880;-0.518;2023-04-22T12:18:32;99564.78;;;17.36;38.11
39435;BME280;66825;51.880;-0.518;2023-04-22T12:21:09;99562.38;;;17.35;37.88
39435;BME280;66825;51.880;-0.518;2023-04-22T12:23:44;99561.91;;;17.41;37.91
39435;BME280;66825;51.880;-0.518;2023-04-22T12:26:11;99559.00;;;17.46;38.04
39435;BME280;66825;51.880;-0.518;2023-04-22T12:28:37;99566.84;;;17.48;38.01
39435;BME280;66825;51.880;-0.518;2023-04-22T12:31:03;99560.28;;;17.49;37.84
39435;BME280;66825;51.880;-0.518;2023-04-22T12:33:29;99542.34;;;17.48;38.30
39435;BME280;66825;51.880;-0.518;2023-04-22T12:35:54;99558.03;;;17.60;38.14
39435;BME280;66825;51.880;-0.518;2023-04-22T12:38:20;99560.47;;;17.61;38.07
39435;BME280;66825;51.880;-0.518;2023-04-22T12:40:45;99550.19;;;17.58;37.97
39435;BME280;66825;51.880;-0.518;2023-04-22T12:43:11;99564.78;;;17.71;37.97
39435;BME280;66825;51.880;-0.518;2023-04-22T12:45:36;99554.69;;;17.63;37.87
39435;BME280;66825;51.880;-0.518;2023-04-22T12:48:02;99565.88;;;17.79;38.29
39435;BME280;66825;51.880;-0.518;2023-04-22T12:50:27;99565.25;;;17.82;38.15
39435;BME280;66825;51.880;-0.518;2023-04-22T12:52:53;99565.53;;;17.81;38.09
39435;BME280;66825;51.880;-0.518;2023-04-22T12:55:19;99562.34;;;17.87;37.75
39435;BME280;66825;51.880;-0.518;2023-04-22T12:57:47;99567.47;;;17.89;38.06